EW5738 Ashgrove AU current weather conditions

sailwx.info

Wind from 340 at 0 knots gusting 10

Air temperature 26.7° C
Dewpoint 24.3° C

Last reported at 2020-Jan-22 14:01 UTC.
Time now 2020-Jan-22 14:18 UTC

Location: S 27°27' E 152°58'.
View on Google Maps.

See reports from other nearby stations

  
Tides and Currents Weather Stations Pressure Air Temp Water Temp Dewpoint Dewpoint Depression Visibility Wind Speed Wind Dir Waves Ship Positions
date/time (UTC)wind fromknots sea level pressurealtimeterstation pressurevisibilityair tempwater tempwave heightnotes
2020-Jan-22 14:01 340 0 gusting 10 26.7
2020-Jan-22 13:46 005 26.7
2020-Jan-22 13:16 011 26.7
2020-Jan-22 13:00 329 1 gusting 13 26.7
2020-Jan-22 12:31 010 0 gusting 11 26.7
2020-Jan-22 12:15 350 26.7
2020-Jan-22 11:45 360 27.2
2020-Jan-22 11:16 324 27.2
2020-Jan-22 11:00 299 27.2
2020-Jan-22 10:45 325 0 gusting 7 27.2
2020-Jan-22 10:16 351 0 gusting 7 27.2
2020-Jan-22 10:00 339 3 gusting 13 27.2
2020-Jan-22 09:31 331 0 gusting 5 27.2
2020-Jan-22 09:02 010 0 gusting 13 27.8
2020-Jan-22 08:45 028 3 gusting 15 27.8
2020-Jan-22 08:33 005 5 gusting 13 27.8
2020-Jan-22 08:00 340 1 gusting 10 27.8
2020-Jan-22 07:31 348 7 gusting 18 28.3
2020-Jan-22 07:15 023 4 gusting 17 28.9
2020-Jan-22 07:01 324 29.4
2020-Jan-22 06:46 013 0 gusting 9 29.4
2020-Jan-22 06:30 360 4 gusting 12 30.0
2020-Jan-22 06:16 016 2 gusting 13 31.1
2020-Jan-22 06:01 015 5 gusting 13 31.1
2020-Jan-22 05:46 341 6 gusting 14 31.1
2020-Jan-22 05:31 034 6 gusting 14 31.1
2020-Jan-22 05:17 043 4 gusting 13 32.8
2020-Jan-22 05:01 360 4 gusting 13 32.8
2020-Jan-22 04:46 013 1 gusting 11 32.8
2020-Jan-22 04:32 344 4 gusting 13 33.9
2020-Jan-22 04:16 032 0 gusting 9 33.9
2020-Jan-22 04:01 360 4 gusting 11 33.3
2020-Jan-22 03:46 050 3 gusting 13 33.9
2020-Jan-22 03:30 039 33.9
2020-Jan-22 03:15 069 2 gusting 12 32.8
2020-Jan-22 03:01 026 4 gusting 10 33.3
2020-Jan-22 02:46 355 0 gusting 10 33.3
2020-Jan-22 02:31 036 4 gusting 13 33.3
2020-Jan-22 02:15 019 33.9
2020-Jan-22 02:00 040 33.9
2020-Jan-22 01:45 026 33.9
2020-Jan-22 01:30 027 0 gusting 6 33.9
2020-Jan-22 01:15 041 32.8
2020-Jan-22 01:00 108 32.8
2020-Jan-22 00:47 112 32.8
2020-Jan-22 00:31 051 31.7
2020-Jan-22 00:17 049 32.8
2020-Jan-22 00:02 049 31.7
2020-Jan-21 23:46 355 0 gusting 4 31.1
2020-Jan-21 23:32 348 0 gusting 4 30.0
2020-Jan-21 23:00 342 28.3
2020-Jan-21 22:46 342 28.3
2020-Jan-21 22:17 342 27.2
2020-Jan-21 21:45 331 26.1
2020-Jan-21 21:32 329 26.1
2020-Jan-21 21:02 318 25.0
2020-Jan-21 20:31 289 23.3
2020-Jan-21 20:00 289 22.2
2020-Jan-21 19:46 289 22.2
2020-Jan-21 19:16 289 21.7
2020-Jan-21 18:46 289 22.8